Delmar, NY (12054)

6:51 PM EST on November 25, 2014 (GMT -0500)
SporeRdDelmar | Change Station
CLOSE
Current Station
Personal Weather Station
Location: Delmar, NY
Elevation: 535 ft
Nearby Weather Stations
Active Advisory: Winter Storm Warning Active Notice: Record Report

Elev 535 ft 42.61 °N, 73.92 °W | Updated 7 seconds ago

Partly Cloudy
Partly Cloudy
41.8 °F
Feels Like 42 °F
N
1.3
Wind Variable Wind from SW
Gusts 4.3 mph

Today
High -- | Low -- °F
--% Chance of Precip.
Yesterday
High -- | Low -- °F
Precip. -- in
6:59 AM 4:25 PM
Waxing Crescent, 15% visible
Pressure 30.01 in
Visibility 10.0 miles
Clouds Few 20000 ft
Few 26000 ft
Windchill 42 °F
Dew Point 24 °F
Humidity 49%
Rainfall 0.00 in
Snow Depth Not available.
UV 0 out of 12
Pollen .10 out of 12
Air Quality Not available.
Flu Activity Not available.
METAR KALB 252251Z 24004KT 10SM FEW200 FEW260 04/M04 A3000 RMK AO2 SLP160 T00391039

More Conditions Fewer Conditions

Pressure 30.01 in
Visibility 10.0 miles
Clouds Few 20000 ft
Few 26000 ft
Windchill 42 °F
Dew Point 24 °F
Humidity 49%
Rainfall 0.00 in
Snow Depth Not available.
UV 0 out of 12
Pollen .10 out of 12
Air Quality Not available.
Flu Activity Not available.
METAR KALB 252251Z 24004KT 10SM FEW200 FEW260 04/M04 A3000 RMK AO2 SLP160 T00391039

More Conditions Fewer Conditions

10-Day Weather Forecast

Almanac

Astronomy

Nov. 25, 2014 Rise Set
Actual Time
Civil Twilight
Nautical Twilight
Astronomical Twilight
Moon
Length of Visible Light
Length of Day
Tomorrow will be .
, % of the Moon is Illuminated

Today's Extremes

State Highs State Lows

Community

WunderPhotos

Upload Photos

1,773,624 photos uploaded!

WunderBlogs® & News

Nearby

Air Quality

  Air Quality AQ Index Pollutant
Not available.

Snow Depth

Station Depth Elevation

Earthquake Activity

City Distance Mag. Time & Date
Minimum magnitude displayed is 2.5.

Coastal Water Temperatures

Place Temperature

Nearby Weather Stations